createdAt,value
2017-07-30T00:00:43.057Z,4.87
2017-07-30T00:03:11.351Z,4.82
2017-07-30T00:05:39.639Z,5.07
2017-07-30T00:08:08.672Z,5.12
2017-07-30T00:10:36.995Z,4.75
2017-07-30T00:13:06.020Z,5.62
2017-07-30T00:15:34.342Z,4.32
2017-07-30T00:18:03.420Z,5.05
2017-07-30T00:20:31.689Z,4.97
2017-07-30T00:22:59.960Z,4.78
2017-07-30T00:25:28.264Z,5.30
2017-07-30T00:27:56.532Z,5.40
2017-07-30T00:30:24.803Z,4.80
2017-07-30T00:32:53.299Z,6.72
2017-07-30T00:35:21.563Z,4.72
2017-07-30T00:37:49.838Z,4.28
2017-07-30T00:40:18.997Z,4.60
2017-07-30T00:42:47.292Z,4.80
2017-07-30T00:45:15.557Z,4.43
2017-07-30T00:47:43.861Z,5.07
2017-07-30T00:50:12.131Z,4.03
2017-07-30T00:52:41.167Z,5.30
2017-07-30T00:55:09.481Z,5.57
2017-07-30T00:57:38.511Z,5.00
2017-07-30T01:00:06.784Z,5.03
2017-07-30T01:02:35.084Z,5.20
2017-07-30T01:05:03.356Z,4.40
2017-07-30T01:07:31.620Z,4.15
2017-07-30T01:09:59.924Z,5.07
2017-07-30T01:12:28.183Z,4.78
2017-07-30T01:14:56.455Z,5.68
2017-07-30T01:17:24.752Z,4.80
2017-07-30T01:19:53.016Z,5.25
2017-07-30T01:22:21.275Z,4.90
2017-07-30T01:24:49.599Z,5.43
2017-07-30T01:27:17.861Z,5.28
2017-07-30T01:29:46.124Z,4.82
2017-07-30T01:32:14.448Z,4.62
2017-07-30T01:34:42.712Z,4.75
2017-07-30T01:37:10.983Z,5.28
2017-07-30T01:39:39.280Z,4.55
2017-07-30T01:42:07.547Z,4.95
2017-07-30T01:44:36.588Z,4.50
2017-07-30T01:47:04.903Z,5.22
2017-07-30T01:49:33.179Z,4.80
2017-07-30T01:52:01.453Z,5.03
2017-07-30T01:54:29.764Z,4.50
2017-07-30T01:56:58.036Z,4.75
2017-07-30T01:59:27.067Z,4.85
2017-07-30T02:01:55.638Z,4.82
2017-07-30T02:04:23.903Z,4.75
2017-07-30T02:06:52.167Z,5.15
2017-07-30T02:09:20.472Z,4.68
2017-07-30T02:11:49.540Z,5.28
2017-07-30T02:14:18.567Z,5.12
2017-07-30T02:16:47.079Z,4.93
2017-07-30T02:19:15.352Z,5.00
2017-07-30T02:21:44.380Z,4.37
2017-07-30T02:24:12.692Z,4.80
2017-07-30T02:26:41.719Z,4.78
2017-07-30T02:29:09.983Z,5.90
2017-07-30T02:31:38.295Z,5.40
2017-07-30T02:34:07.329Z,5.15
2017-07-30T02:36:35.587Z,4.70
2017-07-30T02:39:03.897Z,4.78
2017-07-30T02:41:32.929Z,5.03
2017-07-30T02:44:01.209Z,4.50
2017-07-30T02:46:29.511Z,4.20
2017-07-30T02:48:58.543Z,4.78
2017-07-30T02:51:26.828Z,6.20
2017-07-30T02:53:55.291Z,4.72
2017-07-30T02:56:24.468Z,5.65
2017-07-30T02:58:52.732Z,5.95
2017-07-30T03:01:21.052Z,5.85
2017-07-30T03:03:49.344Z,5.03
2017-07-30T03:06:17.608Z,5.32
2017-07-30T03:08:45.915Z,5.40
2017-07-30T03:11:14.198Z,5.05
2017-07-30T03:13:42.500Z,5.10
2017-07-30T03:16:10.975Z,5.18
2017-07-30T03:18:39.235Z,5.05
2017-07-30T03:21:08.267Z,4.55
2017-07-30T03:23:36.581Z,5.78
2017-07-30T03:26:04.834Z,4.60
2017-07-30T03:28:33.876Z,5.28
2017-07-30T03:31:02.397Z,4.78
2017-07-30T03:33:31.428Z,5.50
2017-07-30T03:35:59.704Z,5.30
2017-07-30T03:38:28.022Z,5.07
2017-07-30T03:40:56.280Z,5.00
2017-07-30T03:43:24.552Z,4.93
2017-07-30T03:45:52.853Z,5.15
2017-07-30T03:48:21.116Z,4.50
2017-07-30T03:50:49.383Z,5.60
2017-07-30T03:53:17.858Z,4.97
2017-07-30T03:55:46.121Z,5.68
2017-07-30T03:58:14.387Z,5.28
2017-07-30T04:00:43.455Z,4.45
2017-07-30T04:03:11.729Z,5.05
2017-07-30T04:05:40.751Z,6.28
2017-07-30T04:08:09.042Z,5.45
2017-07-30T04:10:37.308Z,4.82
2017-07-30T04:13:05.572Z,5.15
2017-07-30T04:15:33.891Z,5.25
2017-07-30T04:18:02.156Z,5.45
2017-07-30T04:20:30.428Z,5.45
2017-07-30T04:22:58.823Z,5.30
2017-07-30T04:25:27.100Z,4.60
2017-07-30T04:27:56.132Z,5.15
2017-07-30T04:30:24.436Z,4.85
2017-07-30T04:32:54.291Z,4.62
2017-07-30T04:35:22.556Z,4.45
2017-07-30T04:37:50.859Z,5.53
2017-07-30T04:40:19.897Z,4.60
2017-07-30T04:42:48.164Z,4.55
2017-07-30T04:45:16.462Z,5.00
2017-07-30T04:47:45.486Z,4.72
2017-07-30T04:50:13.768Z,4.70
2017-07-30T04:52:42.073Z,4.47
2017-07-30T04:55:11.091Z,4.12
2017-07-30T04:57:39.359Z,5.10
2017-07-30T05:00:07.680Z,4.60
2017-07-30T05:02:35.944Z,5.12
2017-07-30T05:05:04.207Z,4.15
2017-07-30T05:07:32.535Z,3.90
2017-07-30T05:10:00.883Z,4.25
2017-07-30T05:12:29.138Z,4.35
2017-07-30T05:14:57.443Z,4.00
2017-07-30T05:17:25.719Z,4.65
2017-07-30T05:19:53.979Z,4.00
2017-07-30T05:22:22.283Z,3.75
2017-07-30T05:24:50.548Z,3.42
2017-07-30T05:27:18.892Z,4.37
2017-07-30T05:29:47.200Z,3.45
2017-07-30T05:32:16.236Z,4.30
2017-07-30T05:34:44.527Z,4.65
2017-07-30T05:37:12.815Z,4.85
2017-07-30T05:39:41.840Z,4.00
2017-07-30T05:42:10.108Z,3.30
2017-07-30T05:44:38.403Z,4.10
2017-07-30T05:47:07.437Z,4.07
2017-07-30T05:49:35.699Z,3.55
2017-07-30T05:52:04.003Z,4.55
2017-07-30T05:54:33.039Z,3.58
2017-07-30T05:57:01.300Z,3.75
2017-07-30T05:59:29.612Z,3.67
2017-07-30T06:01:58.654Z,4.28
2017-07-30T06:04:26.925Z,3.72
2017-07-30T06:06:55.231Z,4.35
2017-07-30T06:09:23.504Z,3.75
2017-07-30T06:11:51.772Z,4.20
2017-07-30T06:14:20.083Z,4.12
2017-07-30T06:16:48.353Z,4.62
2017-07-30T06:19:16.616Z,3.37
2017-07-30T06:21:44.935Z,3.92
2017-07-30T06:24:13.195Z,4.00
2017-07-30T06:26:41.464Z,4.45
2017-07-30T06:29:09.775Z,4.37
2017-07-30T06:31:38.875Z,3.95
2017-07-30T06:34:07.144Z,4.20
2017-07-30T06:36:35.538Z,4.28
2017-07-30T06:39:03.937Z,3.87
2017-07-30T06:41:32.963Z,4.40
2017-07-30T06:44:01.268Z,4.22
2017-07-30T06:46:30.295Z,4.10
2017-07-30T06:48:58.588Z,4.07
2017-07-30T06:51:26.887Z,3.58
2017-07-30T06:53:55.920Z,4.00
2017-07-30T06:56:24.196Z,3.53
2017-07-30T06:58:52.492Z,4.57
2017-07-30T07:01:20.759Z,3.85
2017-07-30T07:03:49.031Z,4.30
2017-07-30T07:06:17.348Z,5.00
2017-07-30T07:08:45.621Z,3.90
2017-07-30T07:11:14.660Z,3.78
2017-07-30T07:13:42.964Z,4.82
2017-07-30T07:16:12.000Z,4.18
2017-07-30T07:18:40.288Z,4.45
2017-07-30T07:21:08.607Z,3.65
2017-07-30T07:23:36.896Z,4.00
2017-07-30T07:26:05.159Z,4.03
2017-07-30T07:28:33.463Z,4.00
2017-07-30T07:31:01.737Z,4.40
2017-07-30T07:33:30.019Z,3.95
2017-07-30T07:35:58.320Z,4.00
2017-07-30T07:38:26.597Z,3.87
2017-07-30T07:40:55.628Z,4.30
2017-07-30T07:43:23.936Z,4.03
2017-07-30T07:45:52.977Z,4.45
2017-07-30T07:48:21.253Z,4.07
2017-07-30T07:50:49.572Z,4.25
2017-07-30T07:53:17.843Z,4.12
2017-07-30T07:55:46.109Z,4.28
2017-07-30T07:58:14.428Z,3.95
2017-07-30T08:00:43.459Z,4.15
2017-07-30T08:03:11.733Z,4.07
2017-07-30T08:05:40.053Z,4.10
2017-07-30T08:08:08.320Z,3.92
2017-07-30T08:10:36.607Z,4.20
2017-07-30T08:13:04.911Z,4.18
2017-07-30T08:15:33.950Z,3.92
2017-07-30T08:18:02.215Z,4.30
2017-07-30T08:20:30.539Z,3.42
2017-07-30T08:22:58.828Z,3.40
2017-07-30T08:25:27.100Z,3.60
2017-07-30T08:27:55.424Z,4.10
2017-07-30T08:30:23.700Z,3.60
2017-07-30T08:32:51.995Z,3.45
2017-07-30T08:35:20.340Z,4.12
2017-07-30T08:37:48.622Z,3.92
2017-07-30T08:40:16.913Z,4.18
2017-07-30T08:42:45.237Z,4.40
2017-07-30T08:45:13.507Z,4.40
2017-07-30T08:47:41.780Z,3.53
2017-07-30T08:50:10.852Z,4.17
2017-07-30T08:52:39.128Z,3.85
2017-07-30T08:55:07.400Z,3.67
2017-07-30T08:57:36.469Z,3.60
2017-07-30T09:00:05.500Z,3.67
2017-07-30T09:02:33.771Z,4.43
2017-07-30T09:05:02.098Z,3.83
2017-07-30T09:07:30.369Z,3.70
2017-07-30T09:09:58.648Z,4.13
2017-07-30T09:12:26.952Z,4.20
2017-07-30T09:14:56.040Z,3.50
2017-07-30T09:17:25.064Z,4.07
2017-07-30T09:19:53.378Z,3.30
2017-07-30T09:22:22.404Z,3.20
2017-07-30T09:24:50.659Z,2.80
2017-07-30T09:27:18.967Z,3.13
2017-07-30T09:29:48.003Z,3.00
2017-07-30T09:32:16.276Z,2.37
2017-07-30T09:34:44.575Z,2.90
2017-07-30T09:37:13.611Z,2.13
2017-07-30T09:39:41.888Z,2.50
2017-07-30T09:42:10.447Z,2.53
2017-07-30T09:44:38.715Z,3.20
2017-07-30T09:47:06.975Z,3.00
2017-07-30T09:49:35.619Z,2.97
2017-07-30T09:52:03.890Z,2.27
2017-07-30T09:54:32.160Z,3.07
2017-07-30T09:57:00.780Z,3.07
2017-07-30T09:59:29.807Z,2.90
2017-07-30T10:01:58.076Z,3.33
2017-07-30T10:04:26.392Z,3.10
2017-07-30T10:06:54.655Z,2.27
2017-07-30T10:09:22.932Z,2.47
2017-07-30T10:11:51.234Z,2.60
2017-07-30T10:14:19.499Z,2.93
2017-07-30T10:16:47.763Z,2.90
2017-07-30T10:19:16.459Z,2.40
2017-07-30T10:21:45.480Z,2.50
2017-07-30T10:24:13.756Z,2.23
2017-07-30T10:26:42.072Z,2.30
2017-07-30T10:29:10.340Z,2.37
2017-07-30T10:31:38.608Z,2.63
2017-07-30T10:34:06.921Z,2.67
2017-07-30T10:36:35.183Z,2.30
2017-07-30T10:39:03.460Z,2.53
2017-07-30T10:41:32.536Z,2.20
2017-07-30T10:44:01.564Z,2.43
2017-07-30T10:46:29.833Z,2.70
2017-07-30T10:48:58.143Z,2.20
2017-07-30T10:51:27.172Z,2.20
2017-07-30T10:53:55.440Z,2.40
2017-07-30T10:56:23.741Z,2.30
2017-07-30T10:58:52.776Z,2.13
2017-07-30T11:01:21.040Z,2.17
2017-07-30T11:03:49.440Z,2.40
2017-07-30T11:06:18.476Z,2.47
2017-07-30T11:08:46.743Z,2.07
2017-07-30T11:11:15.051Z,2.77
2017-07-30T11:13:44.075Z,2.07
2017-07-30T11:16:12.343Z,2.30
2017-07-30T11:18:40.648Z,2.67
2017-07-30T11:21:09.696Z,2.03
2017-07-30T11:23:37.951Z,2.37
2017-07-30T11:26:06.264Z,1.80
2017-07-30T11:28:35.291Z,1.80
2017-07-30T11:31:03.560Z,1.93
2017-07-30T11:33:31.854Z,2.20
2017-07-30T11:36:00.883Z,2.20
2017-07-30T11:38:29.156Z,2.80
2017-07-30T11:40:57.460Z,2.00
2017-07-30T11:43:26.494Z,1.97
2017-07-30T11:45:54.764Z,2.10
2017-07-30T11:48:23.069Z,1.80
2017-07-30T11:50:51.340Z,2.10
2017-07-30T11:53:19.615Z,2.30
2017-07-30T11:55:47.995Z,2.40
2017-07-30T11:58:16.267Z,1.87
2017-07-30T12:00:44.536Z,2.00
2017-07-30T12:03:12.828Z,1.73
2017-07-30T12:05:41.858Z,1.77
2017-07-30T12:08:10.128Z,1.93
2017-07-30T12:10:38.431Z,1.67
2017-07-30T12:13:07.455Z,3.10
2017-07-30T12:15:35.732Z,1.50
2017-07-30T12:18:04.039Z,1.80
2017-07-30T12:20:33.079Z,1.47
2017-07-30T12:23:01.331Z,1.73
2017-07-30T12:25:29.648Z,1.60
2017-07-30T12:27:57.928Z,1.83
2017-07-30T12:30:26.184Z,1.83
2017-07-30T12:32:54.484Z,1.80
2017-07-30T12:35:22.747Z,1.97
2017-07-30T12:37:51.020Z,1.77
2017-07-30T12:40:19.344Z,1.40
2017-07-30T12:42:47.612Z,1.73
2017-07-30T12:45:16.219Z,1.50
2017-07-30T12:47:44.523Z,1.87
2017-07-30T12:50:12.791Z,1.60
2017-07-30T12:52:41.061Z,1.53
2017-07-30T12:55:09.369Z,2.17
2017-07-30T12:57:38.398Z,1.77
2017-07-30T13:00:06.659Z,1.67
2017-07-30T13:02:34.961Z,1.93
2017-07-30T13:05:03.232Z,2.30
2017-07-30T13:07:32.264Z,1.67
2017-07-30T13:10:00.566Z,1.50
2017-07-30T13:12:29.603Z,1.87
2017-07-30T13:14:57.867Z,1.87
2017-07-30T13:17:26.180Z,1.27
2017-07-30T13:19:55.203Z,1.87
2017-07-30T13:22:23.467Z,1.60
2017-07-30T13:24:51.975Z,2.37
2017-07-30T13:27:21.008Z,1.67
2017-07-30T13:29:49.296Z,2.20
2017-07-30T13:32:17.783Z,1.63
2017-07-30T13:34:46.840Z,1.43
2017-07-30T13:37:15.112Z,1.63
2017-07-30T13:39:43.412Z,1.90
2017-07-30T13:42:11.683Z,1.97
2017-07-30T13:44:39.945Z,1.80
2017-07-30T13:47:08.244Z,2.00
2017-07-30T13:49:36.511Z,1.50
2017-07-30T13:52:04.784Z,1.87
2017-07-30T13:54:33.084Z,1.80
2017-07-30T13:57:01.351Z,2.03
2017-07-30T13:59:29.615Z,1.60
2017-07-30T14:01:57.916Z,1.47
2017-07-30T14:04:26.184Z,2.13
2017-07-30T14:06:54.452Z,1.90
2017-07-30T14:09:22.748Z,1.93
2017-07-30T14:11:51.021Z,1.60
2017-07-30T14:14:19.363Z,1.93
2017-07-30T14:16:47.669Z,1.70
2017-07-30T14:19:15.936Z,1.83
2017-07-30T14:21:44.216Z,1.77
2017-07-30T14:24:12.528Z,1.70
2017-07-30T14:26:40.795Z,1.70
2017-07-30T14:29:09.067Z,1.60
2017-07-30T14:31:37.395Z,2.03
2017-07-30T14:34:06.423Z,2.53
2017-07-30T14:36:34.683Z,1.83
2017-07-30T14:39:02.996Z,1.60
2017-07-30T14:41:31.259Z,1.80
2017-07-30T14:43:59.531Z,1.87
2017-07-30T14:46:27.845Z,1.93
2017-07-30T14:48:56.106Z,1.73
2017-07-30T14:51:24.376Z,1.80
2017-07-30T14:53:52.680Z,1.73
2017-07-30T14:56:20.938Z,1.80
2017-07-30T14:58:49.207Z,1.87
2017-07-30T15:01:17.508Z,1.70
2017-07-30T15:03:45.782Z,2.23
2017-07-30T15:06:14.052Z,1.80
2017-07-30T15:08:43.107Z,1.80
2017-07-30T15:11:11.379Z,1.80
2017-07-30T15:13:39.661Z,1.97
2017-07-30T15:16:08.748Z,2.05
2017-07-30T15:18:37.775Z,2.13
2017-07-30T15:21:06.039Z,1.90
2017-07-30T15:23:34.335Z,1.90
2017-07-30T15:26:03.367Z,1.90
2017-07-30T15:28:31.643Z,2.20
2017-07-30T15:30:59.971Z,2.20
2017-07-30T15:33:28.240Z,2.37
2017-07-30T15:35:56.508Z,2.45
2017-07-30T15:38:24.827Z,2.35
2017-07-30T15:40:53.860Z,3.10
2017-07-30T15:43:22.236Z,2.83
2017-07-30T15:45:50.563Z,2.70
2017-07-30T15:48:20.222Z,2.58
2017-07-30T15:50:49.256Z,2.50
2017-07-30T15:53:17.583Z,2.78
2017-07-30T15:55:45.842Z,2.55
2017-07-30T15:58:14.111Z,2.75
2017-07-30T16:00:42.420Z,3.20
2017-07-30T16:03:10.687Z,2.70
2017-07-30T16:05:38.963Z,3.17
2017-07-30T16:08:07.260Z,3.30
2017-07-30T16:10:35.532Z,3.20
2017-07-30T16:13:03.803Z,3.77
2017-07-30T16:15:32.116Z,3.35
2017-07-30T16:18:01.180Z,3.37
2017-07-30T16:20:29.436Z,4.18
2017-07-30T16:22:57.747Z,3.37
2017-07-30T16:25:26.023Z,2.78
2017-07-30T16:27:54.304Z,3.50
2017-07-30T16:30:22.617Z,3.30
2017-07-30T16:32:50.888Z,3.50
2017-07-30T16:35:19.168Z,3.55
2017-07-30T16:37:47.579Z,2.80
2017-07-30T16:40:15.848Z,4.80
2017-07-30T16:42:44.889Z,2.90
2017-07-30T16:45:13.211Z,3.40
2017-07-30T16:47:41.481Z,3.40
2017-07-30T16:50:09.765Z,2.85
2017-07-30T16:52:38.076Z,2.80
2017-07-30T16:55:07.120Z,3.00
2017-07-30T16:57:35.388Z,2.70
2017-07-30T17:00:03.732Z,2.62
2017-07-30T17:02:32.016Z,2.80
2017-07-30T17:05:00.308Z,2.62
2017-07-30T17:07:28.648Z,2.30
2017-07-30T17:09:56.915Z,2.90
2017-07-30T17:12:26.207Z,3.17
2017-07-30T17:14:55.290Z,3.00
2017-07-30T17:17:24.374Z,2.95
2017-07-30T17:19:53.404Z,2.42
2017-07-30T17:22:21.907Z,3.45
2017-07-30T17:24:50.963Z,2.30
2017-07-30T17:27:19.239Z,2.35
2017-07-30T17:29:47.556Z,3.65
2017-07-30T17:32:15.871Z,2.50
2017-07-30T17:34:44.456Z,2.85
2017-07-30T17:37:12.856Z,2.75
2017-07-30T17:39:41.133Z,3.50
2017-07-30T17:42:09.420Z,2.83
2017-07-30T17:44:37.723Z,2.95
2017-07-30T17:47:05.996Z,3.10
2017-07-30T17:49:34.274Z,2.78
2017-07-30T17:52:02.575Z,3.10
2017-07-30T17:54:31.619Z,3.05
2017-07-30T17:56:59.888Z,3.33
2017-07-30T17:59:28.185Z,3.60
2017-07-30T18:01:57.216Z,3.20
2017-07-30T18:04:25.492Z,3.10
2017-07-30T18:06:54.891Z,3.10
2017-07-30T18:09:23.164Z,3.95
2017-07-30T18:11:52.205Z,3.00
2017-07-30T18:14:20.890Z,3.00
2017-07-30T18:16:49.156Z,3.47
2017-07-30T18:19:17.519Z,3.30
2017-07-30T18:21:46.719Z,3.87
2017-07-30T18:24:14.995Z,3.22
2017-07-30T18:26:44.040Z,3.85
2017-07-30T18:29:12.339Z,3.15
2017-07-30T18:31:41.372Z,3.60
2017-07-30T18:34:09.640Z,3.35
2017-07-30T18:36:37.963Z,2.92
2017-07-30T18:39:06.247Z,3.95
2017-07-30T18:41:34.503Z,3.10
2017-07-30T18:44:02.816Z,3.25
2017-07-30T18:46:31.858Z,2.90
2017-07-30T18:49:00.123Z,3.28
2017-07-30T18:51:28.440Z,2.90
2017-07-30T18:53:56.712Z,3.30
2017-07-30T18:56:24.983Z,3.35
2017-07-30T18:58:53.292Z,2.90
2017-07-30T19:01:22.326Z,2.83
2017-07-30T19:03:50.600Z,3.15
2017-07-30T19:06:18.916Z,2.80
2017-07-30T19:08:47.187Z,3.30
2017-07-30T19:11:15.464Z,3.60
2017-07-30T19:13:43.768Z,3.37
2017-07-30T19:16:12.035Z,3.05
2017-07-30T19:18:40.299Z,3.28
2017-07-30T19:21:08.619Z,3.25
2017-07-30T19:23:36.888Z,2.95
2017-07-30T19:26:05.154Z,3.28
2017-07-30T19:28:33.460Z,3.17
2017-07-30T19:31:02.496Z,4.20
2017-07-30T19:33:30.979Z,3.42
2017-07-30T19:36:00.183Z,3.55
2017-07-30T19:38:29.219Z,4.03
2017-07-30T19:40:57.492Z,3.95
2017-07-30T19:43:25.800Z,3.80
2017-07-30T19:45:54.071Z,4.35
2017-07-30T19:48:22.347Z,3.90
2017-07-30T19:50:50.671Z,4.15
2017-07-30T19:53:19.711Z,3.78
2017-07-30T19:55:47.979Z,4.05
2017-07-30T19:58:16.468Z,3.72
2017-07-30T20:00:45.503Z,3.90
2017-07-30T20:03:13.791Z,3.65
2017-07-30T20:05:42.094Z,3.87
2017-07-30T20:08:11.119Z,4.15
2017-07-30T20:10:39.395Z,4.20
2017-07-30T20:13:07.711Z,5.28
2017-07-30T20:15:35.983Z,3.40
2017-07-30T20:18:04.247Z,4.20
2017-07-30T20:20:32.787Z,4.20
2017-07-30T20:23:01.060Z,4.57
2017-07-30T20:25:29.331Z,3.80
2017-07-30T20:27:57.665Z,3.90
2017-07-30T20:30:26.695Z,4.07
2017-07-30T20:32:54.964Z,4.67
2017-07-30T20:35:23.627Z,4.25
2017-07-30T20:37:51.908Z,4.00
2017-07-30T20:40:20.184Z,3.63
2017-07-30T20:42:49.255Z,5.18
2017-07-30T20:45:18.301Z,3.75
2017-07-30T20:47:46.575Z,4.50
2017-07-30T20:50:15.063Z,3.62
2017-07-30T20:52:43.334Z,4.28
2017-07-30T20:55:12.368Z,3.85
2017-07-30T20:57:40.676Z,3.92
2017-07-30T21:00:09.712Z,4.20
2017-07-30T21:02:37.984Z,3.45
2017-07-30T21:05:06.305Z,4.12
2017-07-30T21:07:34.570Z,5.00
2017-07-30T21:10:02.841Z,3.95
2017-07-30T21:12:31.983Z,4.03
2017-07-30T21:15:01.029Z,4.37
2017-07-30T21:17:29.291Z,4.50
2017-07-30T21:19:57.607Z,3.87
2017-07-30T21:22:25.867Z,4.12
2017-07-30T21:24:54.142Z,3.97
2017-07-30T21:27:22.452Z,6.47
2017-07-30T21:29:51.496Z,5.00
2017-07-30T21:32:19.778Z,4.12
2017-07-30T21:34:48.072Z,4.50
2017-07-30T21:37:17.116Z,5.70
2017-07-30T21:39:45.384Z,4.90
2017-07-30T21:42:13.700Z,4.20
2017-07-30T21:44:41.964Z,4.68
2017-07-30T21:47:10.240Z,4.75
2017-07-30T21:49:38.527Z,4.40
2017-07-30T21:52:06.800Z,5.72
2017-07-30T21:54:35.380Z,4.60
2017-07-30T21:57:04.456Z,4.37
2017-07-30T21:59:32.732Z,5.30
2017-07-30T22:02:01.763Z,4.85
2017-07-30T22:04:30.078Z,4.62
2017-07-30T22:06:59.103Z,4.40
2017-07-30T22:09:27.396Z,3.75
2017-07-30T22:11:55.707Z,4.00
2017-07-30T22:14:25.012Z,3.30
2017-07-30T22:16:53.279Z,3.80
2017-07-30T22:19:21.564Z,4.10
2017-07-30T22:21:49.832Z,3.55
2017-07-30T22:24:18.876Z,4.15
2017-07-30T22:26:47.277Z,3.53
2017-07-30T22:29:15.561Z,4.45
2017-07-30T22:31:43.836Z,3.67
2017-07-30T22:34:12.138Z,3.90
2017-07-30T22:36:40.395Z,3.78
2017-07-30T22:39:08.671Z,3.58
2017-07-30T22:41:37.084Z,4.20
2017-07-30T22:44:05.343Z,3.62
2017-07-30T22:46:33.612Z,3.90
2017-07-30T22:49:01.996Z,4.15
2017-07-30T22:51:30.260Z,3.95
2017-07-30T22:53:58.532Z,3.40
2017-07-30T22:56:26.852Z,4.05
2017-07-30T22:58:55.115Z,4.05
2017-07-30T23:01:23.391Z,3.55
2017-07-30T23:03:51.688Z,4.05
2017-07-30T23:06:19.955Z,4.30
2017-07-30T23:08:48.232Z,4.20
2017-07-30T23:11:17.316Z,3.28
2017-07-30T23:13:45.567Z,4.32
2017-07-30T23:16:14.608Z,4.25
2017-07-30T23:18:42.903Z,3.62
2017-07-30T23:21:11.931Z,3.95
2017-07-30T23:23:40.196Z,4.25
2017-07-30T23:26:08.499Z,3.87
2017-07-30T23:28:36.771Z,3.78
2017-07-30T23:31:05.815Z,3.28
2017-07-30T23:33:34.099Z,3.95
2017-07-30T23:36:02.369Z,3.90
2017-07-30T23:38:31.407Z,3.10
2017-07-30T23:41:00.354Z,3.28
2017-07-30T23:43:28.616Z,3.33
2017-07-30T23:45:56.888Z,3.50
2017-07-30T23:48:25.183Z,3.35
2017-07-30T23:50:53.443Z,2.92
2017-07-30T23:53:21.716Z,3.53
2017-07-30T23:55:50.039Z,2.97
2017-07-30T23:58:18.303Z,3.17
